createdAt,value
2018-02-13T00:00:32.596Z,0
2018-02-13T00:01:34.291Z,0
2018-02-13T00:02:35.990Z,0
2018-02-13T00:03:37.750Z,0
2018-02-13T00:04:39.518Z,0
2018-02-13T00:05:41.224Z,0
2018-02-13T00:06:42.922Z,0
2018-02-13T00:07:44.603Z,0
2018-02-13T00:08:46.303Z,0
2018-02-13T00:09:48.051Z,0
2018-02-13T00:10:49.745Z,0
2018-02-13T00:11:51.483Z,0
2018-02-13T00:12:53.174Z,0
2018-02-13T00:13:54.875Z,0
2018-02-13T00:14:56.569Z,0
2018-02-13T00:15:58.279Z,0
2018-02-13T00:16:59.965Z,0
2018-02-13T00:18:01.677Z,0
2018-02-13T00:19:03.383Z,0
2018-02-13T00:20:05.085Z,0
2018-02-13T00:21:06.796Z,0
2018-02-13T00:22:08.555Z,0
2018-02-13T00:23:10.247Z,0
2018-02-13T00:24:11.960Z,0
2018-02-13T00:25:13.666Z,0
2018-02-13T00:26:15.355Z,0
2018-02-13T00:27:17.049Z,0
2018-02-13T00:28:18.765Z,0
2018-02-13T00:29:20.462Z,0
2018-02-13T00:30:22.157Z,0
2018-02-13T00:31:23.865Z,0
2018-02-13T00:32:25.567Z,0
2018-02-13T00:33:27.281Z,0
2018-02-13T00:34:28.998Z,0
2018-02-13T00:35:30.686Z,0
2018-02-13T00:36:32.426Z,0
2018-02-13T00:37:34.162Z,0
2018-02-13T00:38:35.865Z,0
2018-02-13T00:39:37.581Z,0
2018-02-13T00:40:39.285Z,0
2018-02-13T00:41:40.974Z,0
2018-02-13T00:42:42.669Z,0
2018-02-13T00:43:44.377Z,0
2018-02-13T00:44:46.080Z,0
2018-02-13T00:45:47.760Z,0
2018-02-13T00:46:49.466Z,0
2018-02-13T00:47:51.187Z,0
2018-02-13T00:48:52.873Z,0
2018-02-13T00:49:54.565Z,0
2018-02-13T00:50:56.273Z,0
2018-02-13T00:51:57.983Z,0
2018-02-13T00:52:59.689Z,0
2018-02-13T00:54:01.381Z,0
2018-02-13T00:55:03.083Z,0
2018-02-13T00:56:04.765Z,0
2018-02-13T00:57:06.458Z,0
2018-02-13T00:58:08.170Z,0
2018-02-13T00:59:09.902Z,0
2018-02-13T01:00:11.585Z,0
2018-02-13T01:01:13.287Z,0
2018-02-13T01:02:14.983Z,0
2018-02-13T01:03:16.672Z,0
2018-02-13T01:04:18.380Z,0
2018-02-13T01:05:20.085Z,0
2018-02-13T01:06:21.922Z,0
2018-02-13T01:07:23.627Z,0
2018-02-13T01:08:25.337Z,0
2018-02-13T01:09:27.132Z,0
2018-02-13T01:10:28.827Z,0
2018-02-13T01:11:30.696Z,0
2018-02-13T01:12:32.404Z,0
2018-02-13T01:13:34.101Z,0
2018-02-13T01:14:36.007Z,0
2018-02-13T01:15:37.670Z,0
2018-02-13T01:16:39.365Z,0
2018-02-13T01:17:41.057Z,0
2018-02-13T01:18:42.785Z,0
2018-02-13T01:19:45.864Z,0
2018-02-13T01:20:47.546Z,0
2018-02-13T01:21:49.242Z,0
2018-02-13T01:22:50.982Z,0
2018-02-13T01:23:52.706Z,0
2018-02-13T01:24:54.400Z,0
2018-02-13T01:25:56.092Z,0
2018-02-13T01:26:57.769Z,0
2018-02-13T01:27:59.474Z,0
2018-02-13T01:29:01.182Z,0
2018-02-13T01:30:02.884Z,0
2018-02-13T01:31:04.574Z,0
2018-02-13T01:32:06.265Z,0
2018-02-13T01:33:07.957Z,0
2018-02-13T01:34:09.664Z,0
2018-02-13T01:35:11.351Z,0
2018-02-13T01:36:13.060Z,0
2018-02-13T01:37:14.815Z,0
2018-02-13T01:38:16.598Z,0
2018-02-13T01:39:18.348Z,0
2018-02-13T01:40:20.122Z,0
2018-02-13T01:41:21.894Z,0
2018-02-13T01:42:23.625Z,0
2018-02-13T01:43:25.406Z,0
2018-02-13T01:44:27.174Z,0
2018-02-13T01:45:28.932Z,0
2018-02-13T01:46:30.707Z,0
2018-02-13T01:47:32.461Z,0
2018-02-13T01:48:34.242Z,0
2018-02-13T01:49:35.977Z,0
2018-02-13T01:50:37.739Z,0
2018-02-13T01:51:39.526Z,0
2018-02-13T01:52:41.281Z,0
2018-02-13T01:53:43.041Z,0
2018-02-13T01:54:44.785Z,0
2018-02-13T01:55:46.576Z,0
2018-02-13T01:56:48.295Z,0
2018-02-13T01:57:50.055Z,0
2018-02-13T01:58:51.806Z,0
2018-02-13T01:59:53.567Z,0
2018-02-13T02:00:55.302Z,0
2018-02-13T02:01:57.017Z,0
2018-02-13T02:02:58.782Z,0
2018-02-13T02:04:00.520Z,0
2018-02-13T02:05:02.315Z,0
2018-02-13T02:06:04.094Z,0
2018-02-13T02:07:05.890Z,0
2018-02-13T02:08:07.677Z,0
2018-02-13T02:09:09.462Z,0
2018-02-13T02:10:11.265Z,0
2018-02-13T02:11:13.064Z,0
2018-02-13T02:12:14.767Z,0
2018-02-13T02:13:16.540Z,0
2018-02-13T02:14:18.332Z,0
2018-02-13T02:15:20.120Z,0
2018-02-13T02:16:21.887Z,0
2018-02-13T02:17:23.655Z,0
2018-02-13T02:18:25.451Z,0
2018-02-13T02:19:27.241Z,0
2018-02-13T02:20:28.952Z,0
2018-02-13T02:21:30.738Z,0
2018-02-13T02:22:32.505Z,0
2018-02-13T02:23:34.247Z,0
2018-02-13T02:24:36.019Z,0
2018-02-13T02:25:37.743Z,0
2018-02-13T02:26:39.526Z,0
2018-02-13T02:27:41.308Z,0
2018-02-13T02:28:43.080Z,0
2018-02-13T02:29:44.865Z,0
2018-02-13T02:30:46.631Z,0
2018-02-13T02:31:48.391Z,0
2018-02-13T02:32:50.193Z,0
2018-02-13T02:33:51.973Z,0
2018-02-13T02:34:53.753Z,0
2018-02-13T02:35:55.520Z,0
2018-02-13T02:36:57.322Z,0
2018-02-13T02:37:59.029Z,0
2018-02-13T02:39:00.781Z,0
2018-02-13T02:40:02.521Z,0
2018-02-13T02:41:04.299Z,0
2018-02-13T02:42:06.057Z,0
2018-02-13T02:43:07.796Z,0
2018-02-13T02:44:09.529Z,0
2018-02-13T02:45:11.292Z,0
2018-02-13T02:46:13.034Z,0
2018-02-13T02:47:14.760Z,0
2018-02-13T02:48:16.533Z,0
2018-02-13T02:49:18.253Z,0
2018-02-13T02:50:19.962Z,0
2018-02-13T02:51:21.653Z,0
2018-02-13T02:52:23.366Z,0
2018-02-13T02:53:25.056Z,0
2018-02-13T02:54:26.756Z,0
2018-02-13T02:55:28.459Z,0
2018-02-13T02:56:30.182Z,0
2018-02-13T02:57:31.886Z,0
2018-02-13T02:58:33.594Z,0
2018-02-13T02:59:35.276Z,0
2018-02-13T03:00:36.969Z,0
2018-02-13T03:01:38.663Z,0
2018-02-13T03:02:40.389Z,0
2018-02-13T03:03:42.086Z,0
2018-02-13T03:04:43.785Z,0
2018-02-13T03:05:45.481Z,0
2018-02-13T03:06:47.175Z,0
2018-02-13T03:07:48.896Z,0
2018-02-13T03:08:50.616Z,0
2018-02-13T03:09:52.289Z,0
2018-02-13T03:10:53.989Z,0
2018-02-13T03:11:55.699Z,0
2018-02-13T03:12:57.391Z,0
2018-02-13T03:13:59.104Z,0
2018-02-13T03:15:00.815Z,0
2018-02-13T03:16:02.517Z,0
2018-02-13T03:17:04.217Z,0
2018-02-13T03:18:05.932Z,0
2018-02-13T03:19:07.623Z,0
2018-02-13T03:20:09.325Z,0
2018-02-13T03:21:11.094Z,0
2018-02-13T03:22:12.757Z,0
2018-02-13T03:23:14.449Z,0
2018-02-13T03:24:16.152Z,0
2018-02-13T03:25:17.846Z,0
2018-02-13T03:26:19.547Z,0
2018-02-13T03:27:21.234Z,0
2018-02-13T03:28:22.924Z,0
2018-02-13T03:29:24.623Z,0
2018-02-13T03:30:32.049Z,0
2018-02-13T03:31:38.052Z,0
2018-02-13T03:32:45.533Z,0
2018-02-13T03:33:51.951Z,0
2018-02-13T03:34:53.337Z,0
2018-02-13T03:35:55.035Z,0
2018-02-13T03:36:56.747Z,0
2018-02-13T03:37:58.438Z,0
2018-02-13T03:39:00.134Z,0
2018-02-13T03:40:01.830Z,0
2018-02-13T03:41:03.529Z,0
2018-02-13T03:42:05.235Z,0
2018-02-13T03:43:06.997Z,0
2018-02-13T03:44:08.703Z,0
2018-02-13T03:45:10.445Z,0
2018-02-13T03:46:12.156Z,0
2018-02-13T03:47:13.858Z,0
2018-02-13T03:48:15.580Z,0
2018-02-13T03:49:17.287Z,0
2018-02-13T03:50:18.981Z,0
2018-02-13T03:51:20.717Z,0
2018-02-13T03:52:22.469Z,0
2018-02-13T03:53:24.173Z,0
2018-02-13T03:54:25.858Z,0
2018-02-13T03:55:27.556Z,0
2018-02-13T03:56:29.256Z,0
2018-02-13T03:57:30.951Z,0
2018-02-13T03:58:32.652Z,0
2018-02-13T03:59:34.367Z,0
2018-02-13T04:00:36.058Z,0
2018-02-13T04:01:37.768Z,0
2018-02-13T04:02:39.477Z,0
2018-02-13T04:03:41.162Z,0
2018-02-13T04:04:42.855Z,0
2018-02-13T04:05:44.546Z,0
2018-02-13T04:06:46.259Z,0
2018-02-13T04:07:47.964Z,0
2018-02-13T04:08:49.661Z,0
2018-02-13T04:09:51.365Z,0
2018-02-13T04:10:53.077Z,0
2018-02-13T04:11:54.772Z,0
2018-02-13T04:12:56.483Z,0
2018-02-13T04:13:58.163Z,0
2018-02-13T04:14:59.849Z,0
2018-02-13T04:16:01.550Z,0
2018-02-13T04:17:03.256Z,0
2018-02-13T04:18:04.955Z,0
2018-02-13T04:19:06.656Z,0
2018-02-13T04:20:08.401Z,0
2018-02-13T04:21:10.100Z,0
2018-02-13T04:22:11.794Z,0
2018-02-13T04:23:13.481Z,0
2018-02-13T04:24:15.171Z,0
2018-02-13T04:25:16.866Z,0
2018-02-13T04:26:18.569Z,0
2018-02-13T04:27:20.284Z,0
2018-02-13T04:28:21.988Z,0
2018-02-13T04:29:23.697Z,0
2018-02-13T04:30:25.396Z,0
2018-02-13T04:31:27.096Z,0
2018-02-13T04:32:28.792Z,0
2018-02-13T04:33:30.579Z,0
2018-02-13T04:34:32.257Z,0
2018-02-13T04:35:33.946Z,0
2018-02-13T04:36:35.648Z,0
2018-02-13T04:37:37.338Z,0
2018-02-13T04:38:39.042Z,0
2018-02-13T04:39:40.746Z,0
2018-02-13T04:40:42.452Z,0
2018-02-13T04:41:44.154Z,0
2018-02-13T04:42:45.857Z,0
2018-02-13T04:43:47.543Z,0
2018-02-13T04:44:49.240Z,0
2018-02-13T04:45:50.930Z,0
2018-02-13T04:46:52.643Z,0
2018-02-13T04:47:54.322Z,0
2018-02-13T04:48:56.006Z,0
2018-02-13T04:49:57.700Z,0
2018-02-13T04:50:59.388Z,0
2018-02-13T04:52:01.097Z,0
2018-02-13T04:53:02.799Z,0
2018-02-13T04:54:04.532Z,0
2018-02-13T04:55:06.216Z,0
2018-02-13T04:56:07.918Z,0
2018-02-13T04:57:09.596Z,0
2018-02-13T04:58:11.276Z,0
2018-02-13T04:59:12.974Z,0
2018-02-13T05:00:14.658Z,0
2018-02-13T05:01:16.346Z,0
2018-02-13T05:02:18.034Z,0
2018-02-13T05:03:19.718Z,0
2018-02-13T05:04:21.437Z,0
2018-02-13T05:05:23.137Z,0
2018-02-13T05:06:24.832Z,0
2018-02-13T05:07:26.538Z,0
2018-02-13T05:08:28.233Z,0
2018-02-13T05:09:29.930Z,0
2018-02-13T05:10:31.619Z,0
2018-02-13T05:11:33.319Z,0
2018-02-13T05:12:35.007Z,0
2018-02-13T05:13:36.679Z,0
2018-02-13T05:14:38.383Z,0
2018-02-13T05:15:40.072Z,0
2018-02-13T05:16:41.766Z,0
2018-02-13T05:17:43.472Z,0
2018-02-13T05:18:45.166Z,0
2018-02-13T05:19:46.868Z,0
2018-02-13T05:20:48.569Z,0
2018-02-13T05:21:50.277Z,0
2018-02-13T05:22:51.980Z,0
2018-02-13T05:23:53.703Z,0
2018-02-13T05:24:55.398Z,0
2018-02-13T05:25:57.091Z,0
2018-02-13T05:26:58.803Z,0
2018-02-13T05:28:00.494Z,0
2018-02-13T05:29:02.194Z,0
2018-02-13T05:30:03.888Z,0
2018-02-13T05:31:05.585Z,0
2018-02-13T05:32:07.268Z,0
2018-02-13T05:33:08.959Z,0
2018-02-13T05:34:10.719Z,0
2018-02-13T05:35:12.412Z,0
2018-02-13T05:36:14.085Z,0
2018-02-13T05:37:15.787Z,0
2018-02-13T05:38:17.500Z,0
2018-02-13T05:39:19.199Z,0
2018-02-13T05:40:20.897Z,0
2018-02-13T05:41:22.598Z,0
2018-02-13T05:42:24.294Z,0
2018-02-13T05:43:25.988Z,0
2018-02-13T05:44:27.699Z,0
2018-02-13T05:45:29.393Z,0
2018-02-13T05:46:31.088Z,0
2018-02-13T05:47:32.781Z,0
2018-02-13T05:48:34.498Z,0
2018-02-13T05:49:36.187Z,0
2018-02-13T05:50:38.638Z,0
2018-02-13T05:51:40.374Z,0
2018-02-13T05:52:42.067Z,0
2018-02-13T05:53:43.795Z,0
2018-02-13T05:54:45.499Z,0
2018-02-13T05:55:47.204Z,0
2018-02-13T05:56:48.899Z,0
2018-02-13T05:57:50.594Z,0
2018-02-13T05:58:52.290Z,0
2018-02-13T05:59:53.977Z,0
2018-02-13T06:00:55.679Z,0
2018-02-13T06:01:57.376Z,0
2018-02-13T06:02:59.065Z,0
2018-02-13T06:04:00.768Z,0
2018-02-13T06:05:02.470Z,0
2018-02-13T06:06:04.165Z,0
2018-02-13T06:07:05.851Z,0
2018-02-13T06:08:07.557Z,0
2018-02-13T06:09:09.309Z,0
2018-02-13T06:10:11.009Z,0
2018-02-13T06:11:12.707Z,0
2018-02-13T06:12:14.413Z,0
2018-02-13T06:13:16.113Z,0
2018-02-13T06:14:17.811Z,0
2018-02-13T06:15:19.494Z,0
2018-02-13T06:16:21.180Z,0
2018-02-13T06:17:22.880Z,0
2018-02-13T06:18:24.570Z,0
2018-02-13T06:19:26.272Z,0
2018-02-13T06:20:27.967Z,0
2018-02-13T06:21:29.665Z,0
2018-02-13T06:22:31.430Z,0
2018-02-13T06:23:33.111Z,0
2018-02-13T06:24:34.817Z,0
2018-02-13T06:25:36.497Z,0
2018-02-13T06:26:38.185Z,0
2018-02-13T06:27:39.877Z,0
2018-02-13T06:28:41.568Z,0
2018-02-13T06:29:43.270Z,0
2018-02-13T06:30:44.973Z,0
2018-02-13T06:31:46.664Z,0
2018-02-13T06:32:48.346Z,0
2018-02-13T06:33:50.055Z,0
2018-02-13T06:34:51.739Z,0
2018-02-13T06:35:53.447Z,0
2018-02-13T06:36:55.127Z,0
2018-02-13T06:37:56.808Z,0
2018-02-13T06:38:58.519Z,0
2018-02-13T06:40:00.239Z,0
2018-02-13T06:41:01.928Z,0
2018-02-13T06:42:03.635Z,0
2018-02-13T06:43:05.340Z,0
2018-02-13T06:44:07.055Z,0
2018-02-13T06:45:08.766Z,0
2018-02-13T06:46:10.440Z,0
2018-02-13T06:47:12.149Z,0
2018-02-13T06:48:13.844Z,0
2018-02-13T06:49:15.567Z,0
2018-02-13T06:50:17.261Z,0
2018-02-13T06:51:18.968Z,0
2018-02-13T06:52:20.646Z,0
2018-02-13T06:53:22.338Z,0
2018-02-13T06:54:24.017Z,0
2018-02-13T06:55:25.694Z,0
2018-02-13T06:56:27.385Z,0
2018-02-13T06:57:29.076Z,0
2018-02-13T06:58:30.785Z,0
2018-02-13T06:59:32.471Z,0
2018-02-13T07:00:34.162Z,0
2018-02-13T07:01:35.865Z,0
2018-02-13T07:02:37.590Z,0
2018-02-13T07:03:39.294Z,0
2018-02-13T07:04:41.009Z,0
2018-02-13T07:05:42.719Z,0
2018-02-13T07:06:44.405Z,0
2018-02-13T07:07:46.129Z,4
2018-02-13T07:08:47.821Z,0
2018-02-13T07:09:49.530Z,0
2018-02-13T07:10:51.281Z,4
2018-02-13T07:11:52.941Z,4
2018-02-13T07:12:54.638Z,4
2018-02-13T07:13:56.350Z,8
2018-02-13T07:14:58.029Z,8
2018-02-13T07:15:59.732Z,8
2018-02-13T07:17:01.426Z,12
2018-02-13T07:18:03.129Z,12
2018-02-13T07:19:04.819Z,16
2018-02-13T07:20:06.525Z,20
2018-02-13T07:21:08.210Z,24
2018-02-13T07:22:09.915Z,28
2018-02-13T07:23:11.612Z,32
2018-02-13T07:24:13.328Z,36
2018-02-13T07:25:15.075Z,36
2018-02-13T07:26:16.737Z,44
2018-02-13T07:27:18.427Z,48
2018-02-13T07:28:20.149Z,56
2018-02-13T07:29:21.865Z,60
2018-02-13T07:30:23.588Z,68
2018-02-13T07:31:25.295Z,80
2018-02-13T07:32:27.010Z,84
2018-02-13T07:33:28.741Z,92
2018-02-13T07:34:30.440Z,108
2018-02-13T07:35:32.132Z,116
2018-02-13T07:36:33.842Z,124
2018-02-13T07:37:35.535Z,128
2018-02-13T07:38:37.241Z,132
2018-02-13T07:39:39.009Z,140
2018-02-13T07:40:40.702Z,152
2018-02-13T07:41:42.396Z,152
2018-02-13T07:42:44.094Z,176
2018-02-13T07:43:45.822Z,200
2018-02-13T07:44:47.530Z,228
2018-02-13T07:45:49.241Z,232
2018-02-13T07:46:50.931Z,240
2018-02-13T07:47:52.621Z,248
2018-02-13T07:48:54.309Z,272
2018-02-13T07:49:56.019Z,316
2018-02-13T07:50:57.731Z,336
2018-02-13T07:51:59.425Z,368
2018-02-13T07:53:01.131Z,396
2018-02-13T07:54:02.825Z,412
2018-02-13T07:55:04.517Z,444
2018-02-13T07:56:06.237Z,468
2018-02-13T07:57:07.951Z,476
2018-02-13T07:58:09.688Z,452
2018-02-13T07:59:11.397Z,460
2018-02-13T08:00:13.095Z,476
2018-02-13T08:01:14.779Z,492
2018-02-13T08:02:16.496Z,504
2018-02-13T08:03:18.181Z,504
2018-02-13T08:04:19.913Z,512
2018-02-13T08:05:21.632Z,492
2018-02-13T08:06:23.326Z,452
2018-02-13T08:07:25.058Z,440
2018-02-13T08:08:26.796Z,496
2018-02-13T08:09:28.488Z,548
2018-02-13T08:10:30.192Z,624
2018-02-13T08:11:31.904Z,680
2018-02-13T08:12:33.610Z,732
2018-02-13T08:13:35.307Z,784
2018-02-13T08:14:36.991Z,832
2018-02-13T08:15:38.801Z,880
2018-02-13T08:16:40.496Z,844
2018-02-13T08:17:42.194Z,916
2018-02-13T08:18:43.886Z,1068
2018-02-13T08:19:45.601Z,1220
2018-02-13T08:20:47.306Z,1324
2018-02-13T08:21:48.999Z,1236
2018-02-13T08:22:50.683Z,1184
2018-02-13T08:23:52.368Z,1128
2018-02-13T08:24:54.063Z,1084
2018-02-13T08:25:55.762Z,1160
2018-02-13T08:26:57.461Z,1324
2018-02-13T08:27:59.152Z,1224
2018-02-13T08:29:00.862Z,1408
2018-02-13T08:30:02.547Z,1456
2018-02-13T08:31:04.258Z,1500
2018-02-13T08:32:05.957Z,1444
2018-02-13T08:33:07.672Z,1464
2018-02-13T08:34:09.373Z,1472
2018-02-13T08:35:11.075Z,1452
2018-02-13T08:36:12.791Z,1412
2018-02-13T08:37:14.492Z,1396
2018-02-13T08:38:16.193Z,1492
2018-02-13T08:39:17.885Z,1628
2018-02-13T08:40:19.579Z,1800
2018-02-13T08:41:21.280Z,1872
2018-02-13T08:42:22.973Z,1884
2018-02-13T08:43:24.668Z,1828
2018-02-13T08:44:26.384Z,1676
2018-02-13T08:45:28.082Z,1648
2018-02-13T08:46:29.771Z,1764
2018-02-13T08:47:31.462Z,1704
2018-02-13T08:48:33.153Z,1644
2018-02-13T08:49:34.857Z,1884
2018-02-13T08:50:36.576Z,1848
2018-02-13T08:51:38.267Z,1524
2018-02-13T08:52:39.974Z,1596
2018-02-13T08:53:41.662Z,1752
2018-02-13T08:54:43.354Z,1676
2018-02-13T08:55:45.115Z,1776
2018-02-13T08:56:46.762Z,1812
2018-02-13T08:57:48.458Z,1840
2018-02-13T08:58:50.163Z,1812
2018-02-13T08:59:51.883Z,1612
2018-02-13T09:00:53.583Z,1408
2018-02-13T09:01:55.276Z,1444
2018-02-13T09:02:56.983Z,1592
2018-02-13T09:03:58.683Z,1448
2018-02-13T09:05:00.380Z,1512
2018-02-13T09:06:02.082Z,1740
2018-02-13T09:07:03.791Z,1928
2018-02-13T09:08:05.496Z,2256
2018-02-13T09:09:07.219Z,2228
2018-02-13T09:10:08.912Z,2144
2018-02-13T09:11:10.611Z,2088
2018-02-13T09:12:12.310Z,2052
2018-02-13T09:13:14.014Z,2052
2018-02-13T09:14:15.726Z,1984
2018-02-13T09:15:17.429Z,1836
2018-02-13T09:16:19.151Z,1712
2018-02-13T09:17:20.865Z,1604
2018-02-13T09:18:22.711Z,1512
2018-02-13T09:19:24.448Z,1620
2018-02-13T09:20:26.145Z,1712
2018-02-13T09:21:28.215Z,1856
2018-02-13T09:22:29.915Z,2112
2018-02-13T09:23:31.635Z,2496
2018-02-13T09:24:33.340Z,2924
2018-02-13T09:25:35.350Z,2768
2018-02-13T09:26:37.048Z,2580
2018-02-13T09:27:38.766Z,2652
2018-02-13T09:28:40.478Z,2776
2018-02-13T09:29:42.184Z,2460
2018-02-13T09:30:43.870Z,2200
2018-02-13T09:31:45.557Z,2192
2018-02-13T09:32:47.282Z,2092
2018-02-13T09:33:48.990Z,1828
2018-02-13T09:34:50.740Z,1636
2018-02-13T09:35:52.464Z,1544
2018-02-13T09:36:54.180Z,1432
2018-02-13T09:37:55.938Z,1428
2018-02-13T09:38:57.649Z,1460
2018-02-13T09:39:59.365Z,1424
2018-02-13T09:41:01.126Z,1392
2018-02-13T09:42:02.843Z,1508
2018-02-13T09:43:04.542Z,1664
2018-02-13T09:44:06.293Z,1724
2018-02-13T09:45:08.279Z,1932
2018-02-13T09:46:09.975Z,1868
2018-02-13T09:47:11.940Z,2096
2018-02-13T09:48:13.643Z,2724
2018-02-13T09:49:15.358Z,3576
2018-02-13T09:50:17.058Z,3488
2018-02-13T09:51:18.797Z,3200
2018-02-13T09:52:20.520Z,3328
2018-02-13T09:53:22.242Z,3316
2018-02-13T09:54:23.943Z,3660
2018-02-13T09:55:25.646Z,3800
2018-02-13T09:56:27.368Z,4076
2018-02-13T09:57:29.074Z,4124
2018-02-13T09:58:31.508Z,4832
2018-02-13T09:59:34.662Z,4484
2018-02-13T10:00:36.338Z,3968
2018-02-13T10:01:38.044Z,4328
2018-02-13T10:02:39.840Z,4568
2018-02-13T10:03:41.823Z,4260
2018-02-13T10:04:43.529Z,4308
2018-02-13T10:05:45.234Z,3828
2018-02-13T10:06:46.942Z,3864
2018-02-13T10:07:48.637Z,3500
2018-02-13T10:08:50.526Z,3528
2018-02-13T10:09:52.243Z,3688
2018-02-13T10:10:54.069Z,3216
2018-02-13T10:11:55.831Z,3252
2018-02-13T10:12:57.530Z,3184
2018-02-13T10:13:59.238Z,3380
2018-02-13T10:15:00.931Z,2920
2018-02-13T10:16:02.788Z,2796
2018-02-13T10:17:04.496Z,2860
2018-02-13T10:18:06.231Z,3476
2018-02-13T10:19:07.952Z,3976
2018-02-13T10:20:09.674Z,4348
2018-02-13T10:21:11.375Z,5080
2018-02-13T10:22:13.241Z,4660
2018-02-13T10:23:14.950Z,5092
2018-02-13T10:24:16.664Z,6048
2018-02-13T10:25:18.382Z,5832
2018-02-13T10:26:20.080Z,5428
2018-02-13T10:27:21.787Z,5164
2018-02-13T10:28:23.703Z,5852
2018-02-13T10:29:25.413Z,6020
2018-02-13T10:30:27.145Z,5916
2018-02-13T10:31:28.969Z,5756
2018-02-13T10:32:30.902Z,5472
2018-02-13T10:33:32.613Z,4840
2018-02-13T10:34:34.595Z,4252
2018-02-13T10:35:36.378Z,4136
2018-02-13T10:36:38.092Z,4320
2018-02-13T10:37:39.793Z,4280
2018-02-13T10:38:41.499Z,3788
2018-02-13T10:39:43.219Z,4536
2018-02-13T10:40:45.045Z,3836
2018-02-13T10:41:46.740Z,4028
2018-02-13T10:42:48.453Z,4132
2018-02-13T10:43:50.368Z,3380
2018-02-13T10:44:52.175Z,3188
2018-02-13T10:45:53.899Z,3312
2018-02-13T10:46:55.629Z,3676
2018-02-13T10:47:57.393Z,4276
2018-02-13T10:48:59.097Z,4540
2018-02-13T10:50:00.805Z,4460
2018-02-13T10:51:02.583Z,4496
2018-02-13T10:52:04.336Z,4132
2018-02-13T10:53:06.043Z,4236
2018-02-13T10:54:07.893Z,4240
2018-02-13T10:55:09.660Z,4356
2018-02-13T10:56:11.405Z,4316
2018-02-13T10:57:13.109Z,4556
2018-02-13T10:58:14.922Z,4992
2018-02-13T10:59:16.649Z,4788
2018-02-13T11:00:18.401Z,4496
2018-02-13T11:01:20.098Z,4808
2018-02-13T11:02:21.789Z,5004
2018-02-13T11:03:23.526Z,5408
2018-02-13T11:04:25.731Z,5740
2018-02-13T11:05:27.462Z,5228
2018-02-13T11:06:29.214Z,5312
2018-02-13T11:07:30.927Z,5836
2018-02-13T11:08:32.674Z,6076
2018-02-13T11:09:34.373Z,5688
2018-02-13T11:10:36.102Z,5776
2018-02-13T11:11:37.803Z,5788
2018-02-13T11:12:39.546Z,5832
2018-02-13T11:13:41.255Z,6012
2018-02-13T11:14:43.023Z,6604
2018-02-13T11:15:44.714Z,6928
2018-02-13T11:16:46.446Z,6800
2018-02-13T11:17:48.144Z,6860
2018-02-13T11:18:49.975Z,6336
2018-02-13T11:19:51.783Z,5908
2018-02-13T11:20:53.632Z,5716
2018-02-13T11:21:55.604Z,5844
2018-02-13T11:22:57.511Z,6060
2018-02-13T11:23:59.209Z,6720
2018-02-13T11:25:00.921Z,7644
2018-02-13T11:26:02.674Z,8092
2018-02-13T11:27:04.813Z,8036
2018-02-13T11:28:06.918Z,7572
2018-02-13T11:29:08.635Z,7984
2018-02-13T11:30:10.338Z,7232
2018-02-13T11:31:12.087Z,6308
2018-02-13T11:32:13.833Z,6164
2018-02-13T11:33:15.834Z,6320
2018-02-13T11:34:17.740Z,7396
2018-02-13T11:35:19.442Z,8492
2018-02-13T11:36:21.143Z,8956
2018-02-13T11:37:22.849Z,9576
2018-02-13T11:38:24.556Z,9972
2018-02-13T11:39:26.868Z,9092
2018-02-13T11:40:28.787Z,9816
2018-02-13T11:41:30.490Z,9660
2018-02-13T11:42:32.192Z,9452
2018-02-13T11:43:33.897Z,9808
2018-02-13T11:44:35.651Z,10644
2018-02-13T11:45:37.327Z,10728
2018-02-13T11:46:39.035Z,11432
2018-02-13T11:47:40.729Z,11616
2018-02-13T11:48:42.431Z,9272
2018-02-13T11:49:44.142Z,9968
2018-02-13T11:50:45.848Z,10464
2018-02-13T11:51:47.734Z,10908
2018-02-13T11:52:49.448Z,9548
2018-02-13T11:53:51.140Z,9924
2018-02-13T11:54:52.849Z,10140
2018-02-13T11:55:54.549Z,9248
2018-02-13T11:56:56.256Z,9412
2018-02-13T11:57:58.014Z,10064
2018-02-13T11:58:59.725Z,11376
2018-02-13T12:00:01.583Z,11688
2018-02-13T12:01:03.300Z,9536
2018-02-13T12:02:04.990Z,9456
2018-02-13T12:03:06.678Z,10884
2018-02-13T12:04:08.394Z,9924
2018-02-13T12:05:10.119Z,9216
2018-02-13T12:06:11.820Z,7468
2018-02-13T12:07:13.522Z,8400
2018-02-13T12:08:15.298Z,8408
2018-02-13T12:09:17.024Z,6668
2018-02-13T12:10:18.749Z,7756
2018-02-13T12:11:20.627Z,8320
2018-02-13T12:12:22.182Z,10264
2018-02-13T12:13:23.899Z,11960
2018-02-13T12:14:25.635Z,10672
2018-02-13T12:15:27.350Z,8952
2018-02-13T12:16:29.203Z,8908
2018-02-13T12:17:31.019Z,7728
2018-02-13T12:18:32.819Z,8460
2018-02-13T12:19:34.651Z,7380
2018-02-13T12:20:36.520Z,6040
2018-02-13T12:21:38.412Z,5752
2018-02-13T12:22:40.235Z,4992
2018-02-13T12:23:42.023Z,4900
2018-02-13T12:24:43.931Z,4880
2018-02-13T12:25:45.812Z,5420
2018-02-13T12:26:47.682Z,6420
2018-02-13T12:27:49.522Z,7736
2018-02-13T12:28:51.377Z,5648
2018-02-13T12:29:53.222Z,4468
2018-02-13T12:30:55.031Z,5484
2018-02-13T12:31:56.892Z,6112
2018-02-13T12:32:58.760Z,5808
2018-02-13T12:34:00.595Z,5576
2018-02-13T12:35:02.345Z,6504
2018-02-13T12:36:04.186Z,6412
2018-02-13T12:37:05.992Z,9500
2018-02-13T12:38:07.861Z,8180
2018-02-13T12:39:09.722Z,5248
2018-02-13T12:40:11.573Z,6024
2018-02-13T12:41:13.494Z,10260
2018-02-13T12:42:15.410Z,15352
2018-02-13T12:43:17.262Z,11396
2018-02-13T12:44:19.092Z,9012
2018-02-13T12:45:20.838Z,8912
2018-02-13T12:46:22.602Z,8616
2018-02-13T12:47:24.359Z,8492
2018-02-13T12:48:26.172Z,6048
2018-02-13T12:49:27.953Z,6232
2018-02-13T12:50:29.782Z,6656
2018-02-13T12:51:31.588Z,5184
2018-02-13T12:52:33.414Z,4800
2018-02-13T12:53:35.188Z,5200
2018-02-13T12:54:37.027Z,4956
2018-02-13T12:55:38.919Z,5804
2018-02-13T12:56:40.741Z,7040
2018-02-13T12:57:42.626Z,8648
2018-02-13T12:58:44.477Z,8440
2018-02-13T12:59:46.252Z,8356
2018-02-13T13:00:48.061Z,6704
2018-02-13T13:01:49.909Z,7124
2018-02-13T13:02:51.770Z,5356
2018-02-13T13:03:53.564Z,5208
2018-02-13T13:04:55.407Z,4492
2018-02-13T13:05:57.253Z,4996
2018-02-13T13:06:59.929Z,4292
2018-02-13T13:08:04.247Z,4180
2018-02-13T13:09:06.089Z,3836
2018-02-13T13:10:11.125Z,4320
2018-02-13T13:11:12.921Z,3776
2018-02-13T13:12:14.721Z,4332
2018-02-13T13:13:16.534Z,5460
2018-02-13T13:14:18.358Z,6564
2018-02-13T13:15:20.150Z,7056
2018-02-13T13:16:22.050Z,6924
2018-02-13T13:17:23.908Z,7096
2018-02-13T13:18:25.660Z,6676
2018-02-13T13:19:27.453Z,7120
2018-02-13T13:20:29.310Z,6752
2018-02-13T13:21:31.082Z,6456
2018-02-13T13:22:32.806Z,6244
2018-02-13T13:23:34.539Z,5372
2018-02-13T13:24:36.248Z,6116
2018-02-13T13:25:38.008Z,6948
2018-02-13T13:26:39.701Z,6604
2018-02-13T13:27:41.422Z,6136
2018-02-13T13:28:43.130Z,6340
2018-02-13T13:29:44.844Z,6180
2018-02-13T13:30:46.549Z,6740
2018-02-13T13:31:48.305Z,6252
2018-02-13T13:32:50.023Z,4016
2018-02-13T13:33:51.745Z,3360
2018-02-13T13:34:53.457Z,4644
2018-02-13T13:35:55.170Z,7376
2018-02-13T13:36:56.875Z,9572
2018-02-13T13:37:58.581Z,8532
2018-02-13T13:39:00.290Z,10552
2018-02-13T13:40:02.033Z,10132
2018-02-13T13:41:03.746Z,8896
2018-02-13T13:42:05.452Z,9476
2018-02-13T13:43:07.239Z,8836
2018-02-13T13:44:08.966Z,8580
2018-02-13T13:45:10.717Z,7212
2018-02-13T13:46:12.444Z,7152
2018-02-13T13:47:14.163Z,7360
2018-02-13T13:48:15.870Z,8128
2018-02-13T13:49:17.564Z,9252
2018-02-13T13:50:19.264Z,7256
2018-02-13T13:51:20.988Z,7796
2018-02-13T13:52:22.734Z,7340
2018-02-13T13:53:24.469Z,5552
2018-02-13T13:54:26.125Z,6468
2018-02-13T13:55:28.244Z,6232
2018-02-13T13:56:30.018Z,6792
2018-02-13T13:57:32.208Z,7680
2018-02-13T13:58:33.926Z,7708
2018-02-13T13:59:35.697Z,5416
2018-02-13T14:00:37.423Z,4540
2018-02-13T14:01:39.133Z,4388
2018-02-13T14:02:40.906Z,4272
2018-02-13T14:03:42.705Z,4000
2018-02-13T14:04:44.476Z,3408
2018-02-13T14:05:46.232Z,2848
2018-02-13T14:06:48.142Z,3424
2018-02-13T14:07:49.769Z,3636
2018-02-13T14:08:51.480Z,3720
2018-02-13T14:09:53.182Z,4872
2018-02-13T14:10:54.902Z,4180
2018-02-13T14:11:56.894Z,4916
2018-02-13T14:12:58.655Z,5328
2018-02-13T14:14:00.320Z,5672
2018-02-13T14:15:02.083Z,5932
2018-02-13T14:16:03.811Z,5644
2018-02-13T14:17:05.516Z,5244
2018-02-13T14:18:07.215Z,5744
2018-02-13T14:19:08.987Z,5128
2018-02-13T14:20:10.719Z,5852
2018-02-13T14:21:12.440Z,7248
2018-02-13T14:22:14.135Z,9004
2018-02-13T14:23:15.829Z,6892
2018-02-13T14:24:17.572Z,6476
2018-02-13T14:25:19.286Z,7500
2018-02-13T14:26:20.995Z,8084
2018-02-13T14:27:22.703Z,9540